sensor_id;sensor_type;location;lat;lon;timestamp;P1;durP1;ratioP1;P2;durP2;ratioP2
19877;SDS011;10101;52.204;9.910;2023-03-14T00:00:07;2.83;;;0.90;;
19877;SDS011;10101;52.204;9.910;2023-03-14T00:02:36;4.10;;;1.23;;
19877;SDS011;10101;52.204;9.910;2023-03-14T00:05:03;3.23;;;0.63;;
19877;SDS011;10101;52.204;9.910;2023-03-14T00:07:32;9.43;;;1.50;;
19877;SDS011;10101;52.204;9.910;2023-03-14T00:10:00;2.10;;;0.90;;
19877;SDS011;10101;52.204;9.910;2023-03-14T00:12:30;2.10;;;0.97;;
19877;SDS011;10101;52.204;9.910;2023-03-14T00:14:57;2.60;;;1.00;;
19877;SDS011;10101;52.204;9.910;2023-03-14T00:17:25;1.80;;;0.90;;
19877;SDS011;10101;52.204;9.910;2023-03-14T00:19:52;0.80;;;0.80;;
19877;SDS011;10101;52.204;9.910;2023-03-14T00:22:19;2.03;;;1.03;;
19877;SDS011;10101;52.204;9.910;2023-03-14T00:24:45;2.70;;;1.20;;
19877;SDS011;10101;52.204;9.910;2023-03-14T00:27:12;1.57;;;1.20;;
19877;SDS011;10101;52.204;9.910;2023-03-14T00:29:40;1.40;;;1.07;;
19877;SDS011;10101;52.204;9.910;2023-03-14T00:32:08;2.03;;;1.27;;
19877;SDS011;10101;52.204;9.910;2023-03-14T00:34:35;1.30;;;0.90;;
19877;SDS011;10101;52.204;9.910;2023-03-14T00:37:02;1.60;;;0.90;;
19877;SDS011;10101;52.204;9.910;2023-03-14T00:39:29;3.20;;;1.00;;
19877;SDS011;10101;52.204;9.910;2023-03-14T00:41:55;1.57;;;0.90;;
19877;SDS011;10101;52.204;9.910;2023-03-14T00:44:22;2.53;;;0.80;;
19877;SDS011;10101;52.204;9.910;2023-03-14T00:46:51;3.50;;;0.90;;
19877;SDS011;10101;52.204;9.910;2023-03-14T00:49:18;2.40;;;0.90;;
19877;SDS011;10101;52.204;9.910;2023-03-14T00:51:44;4.67;;;0.80;;
19877;SDS011;10101;52.204;9.910;2023-03-14T00:54:11;1.33;;;0.90;;
19877;SDS011;10101;52.204;9.910;2023-03-14T00:56:38;1.07;;;0.70;;
19877;SDS011;10101;52.204;9.910;2023-03-14T00:59:04;2.87;;;0.87;;
19877;SDS011;10101;52.204;9.910;2023-03-14T01:01:31;3.77;;;1.00;;
19877;SDS011;10101;52.204;9.910;2023-03-14T01:03:59;4.07;;;0.90;;
19877;SDS011;10101;52.204;9.910;2023-03-14T01:06:27;2.17;;;1.27;;
19877;SDS011;10101;52.204;9.910;2023-03-14T01:08:54;2.20;;;1.07;;
19877;SDS011;10101;52.204;9.910;2023-03-14T01:11:23;1.20;;;0.80;;
19877;SDS011;10101;52.204;9.910;2023-03-14T01:13:51;3.23;;;1.13;;
19877;SDS011;10101;52.204;9.910;2023-03-14T01:16:19;2.20;;;1.03;;
19877;SDS011;10101;52.204;9.910;2023-03-14T01:18:47;1.40;;;0.87;;
19877;SDS011;10101;52.204;9.910;2023-03-14T01:21:17;3.57;;;1.00;;
19877;SDS011;10101;52.204;9.910;2023-03-14T01:23:45;4.17;;;1.00;;
19877;SDS011;10101;52.204;9.910;2023-03-14T01:26:14;2.67;;;0.93;;
19877;SDS011;10101;52.204;9.910;2023-03-14T01:28:44;1.67;;;1.07;;
19877;SDS011;10101;52.204;9.910;2023-03-14T01:31:11;2.20;;;1.00;;
19877;SDS011;10101;52.204;9.910;2023-03-14T01:33:39;2.83;;;0.73;;
19877;SDS011;10101;52.204;9.910;2023-03-14T01:36:07;2.43;;;0.80;;
19877;SDS011;10101;52.204;9.910;2023-03-14T01:38:37;3.47;;;1.10;;
19877;SDS011;10101;52.204;9.910;2023-03-14T01:41:05;4.27;;;1.13;;
19877;SDS011;10101;52.204;9.910;2023-03-14T01:43:32;1.83;;;0.77;;
19877;SDS011;10101;52.204;9.910;2023-03-14T01:48:53;2.87;;;0.80;;
19877;SDS011;10101;52.204;9.910;2023-03-14T01:51:25;1.40;;;0.80;;
19877;SDS011;10101;52.204;9.910;2023-03-14T01:54:02;1.53;;;1.00;;
19877;SDS011;10101;52.204;9.910;2023-03-14T01:57:10;2.90;;;1.00;;
19877;SDS011;10101;52.204;9.910;2023-03-14T01:59:40;1.23;;;0.67;;
19877;SDS011;10101;52.204;9.910;2023-03-14T02:02:09;0.77;;;0.70;;
19877;SDS011;10101;52.204;9.910;2023-03-14T02:04:39;2.50;;;0.70;;
19877;SDS011;10101;52.204;9.910;2023-03-14T02:07:09;1.87;;;0.83;;
19877;SDS011;10101;52.204;9.910;2023-03-14T02:09:40;1.90;;;0.83;;
19877;SDS011;10101;52.204;9.910;2023-03-14T02:12:08;1.23;;;0.80;;
19877;SDS011;10101;52.204;9.910;2023-03-14T02:14:37;3.00;;;0.87;;
19877;SDS011;10101;52.204;9.910;2023-03-14T02:17:05;1.33;;;0.90;;
19877;SDS011;10101;52.204;9.910;2023-03-14T02:19:40;1.00;;;0.90;;
19877;SDS011;10101;52.204;9.910;2023-03-14T02:22:20;3.60;;;0.80;;
19877;SDS011;10101;52.204;9.910;2023-03-14T02:24:50;3.03;;;1.10;;
19877;SDS011;10101;52.204;9.910;2023-03-14T02:27:29;1.73;;;0.73;;
19877;SDS011;10101;52.204;9.910;2023-03-14T02:29:57;2.43;;;0.90;;
19877;SDS011;10101;52.204;9.910;2023-03-14T02:32:26;3.60;;;0.83;;
19877;SDS011;10101;52.204;9.910;2023-03-14T02:34:56;2.40;;;1.00;;
19877;SDS011;10101;52.204;9.910;2023-03-14T02:37:26;3.13;;;1.03;;
19877;SDS011;10101;52.204;9.910;2023-03-14T02:39:57;1.97;;;1.00;;
19877;SDS011;10101;52.204;9.910;2023-03-14T02:42:24;3.23;;;0.80;;
19877;SDS011;10101;52.204;9.910;2023-03-14T02:44:53;5.43;;;0.87;;
19877;SDS011;10101;52.204;9.910;2023-03-14T02:47:26;1.40;;;1.00;;
19877;SDS011;10101;52.204;9.910;2023-03-14T02:49:58;2.50;;;0.73;;
19877;SDS011;10101;52.204;9.910;2023-03-14T02:52:27;1.93;;;0.70;;
19877;SDS011;10101;52.204;9.910;2023-03-14T02:54:54;5.30;;;1.03;;
19877;SDS011;10101;52.204;9.910;2023-03-14T02:57:21;3.60;;;1.00;;
19877;SDS011;10101;52.204;9.910;2023-03-14T02:59:48;2.07;;;0.67;;
19877;SDS011;10101;52.204;9.910;2023-03-14T03:02:16;3.43;;;0.77;;
19877;SDS011;10101;52.204;9.910;2023-03-14T03:04:43;2.40;;;0.80;;
19877;SDS011;10101;52.204;9.910;2023-03-14T03:07:10;3.57;;;0.80;;
19877;SDS011;10101;52.204;9.910;2023-03-14T03:09:36;2.60;;;0.97;;
19877;SDS011;10101;52.204;9.910;2023-03-14T03:12:03;2.17;;;0.70;;
19877;SDS011;10101;52.204;9.910;2023-03-14T03:14:30;2.17;;;0.87;;
19877;SDS011;10101;52.204;9.910;2023-03-14T03:16:57;2.80;;;0.60;;
19877;SDS011;10101;52.204;9.910;2023-03-14T03:19:25;1.63;;;0.60;;
19877;SDS011;10101;52.204;9.910;2023-03-14T03:21:52;3.07;;;0.77;;
19877;SDS011;10101;52.204;9.910;2023-03-14T03:24:18;1.20;;;0.80;;
19877;SDS011;10101;52.204;9.910;2023-03-14T03:26:45;3.17;;;0.90;;
19877;SDS011;10101;52.204;9.910;2023-03-14T03:29:12;2.53;;;0.87;;
19877;SDS011;10101;52.204;9.910;2023-03-14T03:31:39;2.53;;;0.73;;
19877;SDS011;10101;52.204;9.910;2023-03-14T03:34:05;5.10;;;0.90;;
19877;SDS011;10101;52.204;9.910;2023-03-14T03:36:34;1.50;;;0.70;;
19877;SDS011;10101;52.204;9.910;2023-03-14T03:39:00;2.70;;;0.93;;
19877;SDS011;10101;52.204;9.910;2023-03-14T03:41:27;3.17;;;0.67;;
19877;SDS011;10101;52.204;9.910;2023-03-14T03:43:54;2.03;;;0.67;;
19877;SDS011;10101;52.204;9.910;2023-03-14T03:46:21;2.83;;;0.73;;
19877;SDS011;10101;52.204;9.910;2023-03-14T03:48:48;3.10;;;0.90;;
19877;SDS011;10101;52.204;9.910;2023-03-14T03:51:15;5.20;;;0.77;;
19877;SDS011;10101;52.204;9.910;2023-03-14T03:53:43;1.27;;;0.53;;
19877;SDS011;10101;52.204;9.910;2023-03-14T03:56:10;1.83;;;0.73;;
19877;SDS011;10101;52.204;9.910;2023-03-14T03:58:37;2.10;;;0.80;;
19877;SDS011;10101;52.204;9.910;2023-03-14T04:01:04;2.53;;;0.70;;
19877;SDS011;10101;52.204;9.910;2023-03-14T04:03:32;2.17;;;0.70;;
19877;SDS011;10101;52.204;9.910;2023-03-14T04:05:59;3.30;;;0.93;;
19877;SDS011;10101;52.204;9.910;2023-03-14T04:08:26;2.97;;;0.97;;
19877;SDS011;10101;52.204;9.910;2023-03-14T04:10:56;5.27;;;0.80;;
19877;SDS011;10101;52.204;9.910;2023-03-14T04:13:23;1.13;;;0.50;;
19877;SDS011;10101;52.204;9.910;2023-03-14T04:15:50;1.27;;;0.50;;
19877;SDS011;10101;52.204;9.910;2023-03-14T04:18:17;0.90;;;0.50;;
19877;SDS011;10101;52.204;9.910;2023-03-14T04:20:45;0.50;;;0.30;;
19877;SDS011;10101;52.204;9.910;2023-03-14T04:23:11;1.70;;;0.30;;
19877;SDS011;10101;52.204;9.910;2023-03-14T04:25:38;1.03;;;0.50;;
19877;SDS011;10101;52.204;9.910;2023-03-14T04:28:06;2.13;;;0.40;;
19877;SDS011;10101;52.204;9.910;2023-03-14T04:30:33;0.50;;;0.20;;
19877;SDS011;10101;52.204;9.910;2023-03-14T04:33:00;0.97;;;0.30;;
19877;SDS011;10101;52.204;9.910;2023-03-14T04:35:27;0.20;;;0.20;;
19877;SDS011;10101;52.204;9.910;2023-03-14T04:37:56;0.20;;;0.20;;
19877;SDS011;10101;52.204;9.910;2023-03-14T04:40:22;0.60;;;0.30;;
19877;SDS011;10101;52.204;9.910;2023-03-14T04:42:49;0.20;;;0.20;;
19877;SDS011;10101;52.204;9.910;2023-03-14T04:45:17;1.50;;;0.30;;
19877;SDS011;10101;52.204;9.910;2023-03-14T04:47:44;0.23;;;0.23;;
19877;SDS011;10101;52.204;9.910;2023-03-14T04:50:11;0.30;;;0.30;;
19877;SDS011;10101;52.204;9.910;2023-03-14T04:52:37;0.90;;;0.50;;
19877;SDS011;10101;52.204;9.910;2023-03-14T04:55:05;0.73;;;0.30;;
19877;SDS011;10101;52.204;9.910;2023-03-14T04:57:32;1.00;;;0.50;;
19877;SDS011;10101;52.204;9.910;2023-03-14T04:59:58;0.80;;;0.40;;
19877;SDS011;10101;52.204;9.910;2023-03-14T05:02:26;1.83;;;0.60;;
19877;SDS011;10101;52.204;9.910;2023-03-14T05:04:53;4.63;;;0.73;;
19877;SDS011;10101;52.204;9.910;2023-03-14T05:07:20;2.17;;;0.60;;
19877;SDS011;10101;52.204;9.910;2023-03-14T05:09:47;0.93;;;0.47;;
19877;SDS011;10101;52.204;9.910;2023-03-14T05:12:13;1.17;;;0.50;;
19877;SDS011;10101;52.204;9.910;2023-03-14T05:14:40;2.40;;;0.60;;
19877;SDS011;10101;52.204;9.910;2023-03-14T05:17:07;3.30;;;0.60;;
19877;SDS011;10101;52.204;9.910;2023-03-14T05:19:36;2.47;;;0.70;;
19877;SDS011;10101;52.204;9.910;2023-03-14T05:22:03;2.23;;;0.70;;
19877;SDS011;10101;52.204;9.910;2023-03-14T05:24:29;1.40;;;0.60;;
19877;SDS011;10101;52.204;9.910;2023-03-14T05:26:56;1.43;;;0.60;;
19877;SDS011;10101;52.204;9.910;2023-03-14T05:29:23;2.27;;;0.60;;
19877;SDS011;10101;52.204;9.910;2023-03-14T05:31:50;1.10;;;0.80;;
19877;SDS011;10101;52.204;9.910;2023-03-14T05:34:17;2.03;;;0.60;;
19877;SDS011;10101;52.204;9.910;2023-03-14T05:36:45;2.37;;;0.73;;
19877;SDS011;10101;52.204;9.910;2023-03-14T05:39:11;2.53;;;0.60;;
19877;SDS011;10101;52.204;9.910;2023-03-14T05:41:38;1.70;;;0.40;;
19877;SDS011;10101;52.204;9.910;2023-03-14T05:44:05;0.93;;;0.50;;
19877;SDS011;10101;52.204;9.910;2023-03-14T05:46:32;1.67;;;0.60;;
19877;SDS011;10101;52.204;9.910;2023-03-14T05:48:59;1.93;;;0.43;;
19877;SDS011;10101;52.204;9.910;2023-03-14T05:51:26;3.77;;;0.60;;
19877;SDS011;10101;52.204;9.910;2023-03-14T05:53:54;3.00;;;0.83;;
19877;SDS011;10101;52.204;9.910;2023-03-14T05:56:21;4.40;;;0.87;;
19877;SDS011;10101;52.204;9.910;2023-03-14T05:58:47;2.80;;;0.47;;
19877;SDS011;10101;52.204;9.910;2023-03-14T06:01:14;2.47;;;0.63;;
19877;SDS011;10101;52.204;9.910;2023-03-14T06:03:41;1.43;;;0.60;;
19877;SDS011;10101;52.204;9.910;2023-03-14T06:06:08;1.63;;;0.40;;
19877;SDS011;10101;52.204;9.910;2023-03-14T06:08:34;1.03;;;0.57;;
19877;SDS011;10101;52.204;9.910;2023-03-14T06:11:03;2.73;;;0.57;;
19877;SDS011;10101;52.204;9.910;2023-03-14T06:13:30;2.60;;;0.50;;
19877;SDS011;10101;52.204;9.910;2023-03-14T06:15:57;1.63;;;0.67;;
19877;SDS011;10101;52.204;9.910;2023-03-14T06:18:24;2.07;;;0.60;;
19877;SDS011;10101;52.204;9.910;2023-03-14T06:20:53;1.37;;;0.60;;
19877;SDS011;10101;52.204;9.910;2023-03-14T06:23:20;2.53;;;0.70;;
19877;SDS011;10101;52.204;9.910;2023-03-14T06:25:47;1.50;;;0.50;;
19877;SDS011;10101;52.204;9.910;2023-03-14T06:28:15;1.30;;;0.63;;
19877;SDS011;10101;52.204;9.910;2023-03-14T06:30:42;2.20;;;0.50;;
19877;SDS011;10101;52.204;9.910;2023-03-14T06:33:08;2.57;;;0.60;;
19877;SDS011;10101;52.204;9.910;2023-03-14T06:35:35;2.97;;;0.80;;
19877;SDS011;10101;52.204;9.910;2023-03-14T06:38:02;3.43;;;0.70;;
19877;SDS011;10101;52.204;9.910;2023-03-14T06:40:29;1.13;;;0.37;;
19877;SDS011;10101;52.204;9.910;2023-03-14T06:42:56;2.40;;;0.50;;
19877;SDS011;10101;52.204;9.910;2023-03-14T06:45:24;2.70;;;0.63;;
19877;SDS011;10101;52.204;9.910;2023-03-14T06:47:51;0.80;;;0.50;;
19877;SDS011;10101;52.204;9.910;2023-03-14T06:50:18;2.70;;;0.50;;
19877;SDS011;10101;52.204;9.910;2023-03-14T06:52:47;0.77;;;0.50;;
19877;SDS011;10101;52.204;9.910;2023-03-14T06:55:14;2.30;;;0.60;;
19877;SDS011;10101;52.204;9.910;2023-03-14T06:57:41;1.53;;;0.63;;
19877;SDS011;10101;52.204;9.910;2023-03-14T07:00:09;1.80;;;0.50;;
19877;SDS011;10101;52.204;9.910;2023-03-14T07:02:38;1.33;;;0.40;;
19877;SDS011;10101;52.204;9.910;2023-03-14T07:05:05;2.63;;;0.47;;
19877;SDS011;10101;52.204;9.910;2023-03-14T07:07:33;1.13;;;0.50;;
19877;SDS011;10101;52.204;9.910;2023-03-14T07:09:59;2.33;;;0.80;;
19877;SDS011;10101;52.204;9.910;2023-03-14T07:12:26;1.67;;;0.40;;
19877;SDS011;10101;52.204;9.910;2023-03-14T07:14:53;1.87;;;0.50;;
19877;SDS011;10101;52.204;9.910;2023-03-14T07:17:19;3.13;;;0.80;;
19877;SDS011;10101;52.204;9.910;2023-03-14T07:19:48;2.37;;;0.70;;
19877;SDS011;10101;52.204;9.910;2023-03-14T07:22:14;1.77;;;0.47;;
19877;SDS011;10101;52.204;9.910;2023-03-14T07:24:41;1.57;;;0.50;;
19877;SDS011;10101;52.204;9.910;2023-03-14T07:27:08;2.53;;;0.80;;
19877;SDS011;10101;52.204;9.910;2023-03-14T07:29:34;1.50;;;0.60;;
19877;SDS011;10101;52.204;9.910;2023-03-14T07:32:01;2.20;;;0.40;;
19877;SDS011;10101;52.204;9.910;2023-03-14T07:34:28;3.33;;;0.83;;
19877;SDS011;10101;52.204;9.910;2023-03-14T07:36:56;1.07;;;0.40;;
19877;SDS011;10101;52.204;9.910;2023-03-14T07:39:23;3.83;;;0.70;;
19877;SDS011;10101;52.204;9.910;2023-03-14T07:41:50;1.70;;;0.57;;
19877;SDS011;10101;52.204;9.910;2023-03-14T07:44:16;1.23;;;0.70;;
19877;SDS011;10101;52.204;9.910;2023-03-14T07:46:43;1.70;;;0.60;;
19877;SDS011;10101;52.204;9.910;2023-03-14T07:49:10;2.00;;;0.70;;
19877;SDS011;10101;52.204;9.910;2023-03-14T07:51:36;4.63;;;1.07;;
19877;SDS011;10101;52.204;9.910;2023-03-14T07:54:05;3.77;;;0.80;;
19877;SDS011;10101;52.204;9.910;2023-03-14T07:56:31;2.80;;;1.00;;
19877;SDS011;10101;52.204;9.910;2023-03-14T07:58:58;3.10;;;0.93;;
19877;SDS011;10101;52.204;9.910;2023-03-14T08:01:25;1.63;;;0.67;;
19877;SDS011;10101;52.204;9.910;2023-03-14T08:03:51;2.13;;;0.80;;
19877;SDS011;10101;52.204;9.910;2023-03-14T08:06:18;2.77;;;0.60;;
19877;SDS011;10101;52.204;9.910;2023-03-14T08:08:45;2.97;;;0.70;;
19877;SDS011;10101;52.204;9.910;2023-03-14T08:11:13;2.10;;;0.80;;
19877;SDS011;10101;52.204;9.910;2023-03-14T08:13:40;1.37;;;0.90;;
19877;SDS011;10101;52.204;9.910;2023-03-14T08:16:07;1.30;;;0.60;;
19877;SDS011;10101;52.204;9.910;2023-03-14T08:18:34;4.23;;;0.80;;
19877;SDS011;10101;52.204;9.910;2023-03-14T08:21:01;4.30;;;0.80;;
19877;SDS011;10101;52.204;9.910;2023-03-14T08:23:28;1.13;;;0.50;;
19877;SDS011;10101;52.204;9.910;2023-03-14T08:25:54;2.53;;;0.70;;
19877;SDS011;10101;52.204;9.910;2023-03-14T08:28:23;2.57;;;0.70;;
19877;SDS011;10101;52.204;9.910;2023-03-14T08:30:55;3.70;;;0.60;;
19877;SDS011;10101;52.204;9.910;2023-03-14T08:33:22;2.63;;;0.57;;
19877;SDS011;10101;52.204;9.910;2023-03-14T08:35:51;1.47;;;0.70;;
19877;SDS011;10101;52.204;9.910;2023-03-14T08:38:18;3.20;;;0.53;;
19877;SDS011;10101;52.204;9.910;2023-03-14T08:40:44;2.97;;;0.80;;
19877;SDS011;10101;52.204;9.910;2023-03-14T08:43:11;2.23;;;0.63;;
19877;SDS011;10101;52.204;9.910;2023-03-14T08:45:39;1.83;;;0.70;;
19877;SDS011;10101;52.204;9.910;2023-03-14T08:48:06;1.17;;;0.60;;
19877;SDS011;10101;52.204;9.910;2023-03-14T08:50:33;1.70;;;0.70;;
19877;SDS011;10101;52.204;9.910;2023-03-14T08:53:00;0.77;;;0.40;;
19877;SDS011;10101;52.204;9.910;2023-03-14T08:55:27;4.23;;;0.77;;
19877;SDS011;10101;52.204;9.910;2023-03-14T08:57:54;1.37;;;1.00;;
19877;SDS011;10101;52.204;9.910;2023-03-14T09:00:21;2.63;;;0.60;;
19877;SDS011;10101;52.204;9.910;2023-03-14T09:02:49;1.53;;;0.50;;
19877;SDS011;10101;52.204;9.910;2023-03-14T09:05:16;1.83;;;0.60;;
19877;SDS011;10101;52.204;9.910;2023-03-14T09:07:43;1.87;;;1.03;;
19877;SDS011;10101;52.204;9.910;2023-03-14T09:10:10;2.97;;;0.77;;
19877;SDS011;10101;52.204;9.910;2023-03-14T09:12:37;1.57;;;0.50;;
19877;SDS011;10101;52.204;9.910;2023-03-14T09:15:04;2.73;;;0.50;;
19877;SDS011;10101;52.204;9.910;2023-03-14T09:17:32;4.07;;;0.60;;
19877;SDS011;10101;52.204;9.910;2023-03-14T09:20:00;1.90;;;0.50;;
19877;SDS011;10101;52.204;9.910;2023-03-14T09:22:29;2.77;;;0.50;;
19877;SDS011;10101;52.204;9.910;2023-03-14T09:24:56;1.57;;;0.50;;
19877;SDS011;10101;52.204;9.910;2023-03-14T09:27:23;1.37;;;0.50;;
19877;SDS011;10101;52.204;9.910;2023-03-14T09:29:49;1.17;;;0.60;;
19877;SDS011;10101;52.204;9.910;2023-03-14T09:32:16;0.30;;;0.30;;
19877;SDS011;10101;52.204;9.910;2023-03-14T09:34:43;2.43;;;0.83;;
19877;SDS011;10101;52.204;9.910;2023-03-14T09:37:11;0.60;;;0.50;;
19877;SDS011;10101;52.204;9.910;2023-03-14T09:39:38;0.60;;;0.40;;
19877;SDS011;10101;52.204;9.910;2023-03-14T09:42:05;1.10;;;0.43;;
19877;SDS011;10101;52.204;9.910;2023-03-14T09:44:37;4.63;;;0.60;;
19877;SDS011;10101;52.204;9.910;2023-03-14T09:47:10;3.30;;;0.50;;
19877;SDS011;10101;52.204;9.910;2023-03-14T09:49:39;1.90;;;0.57;;
19877;SDS011;10101;52.204;9.910;2023-03-14T09:52:07;0.67;;;0.63;;
19877;SDS011;10101;52.204;9.910;2023-03-14T09:54:42;0.37;;;0.23;;
19877;SDS011;10101;52.204;9.910;2023-03-14T09:57:11;0.43;;;0.43;;
19877;SDS011;10101;52.204;9.910;2023-03-14T09:59:40;0.63;;;0.40;;
19877;SDS011;10101;52.204;9.910;2023-03-14T10:02:14;1.10;;;0.47;;
19877;SDS011;10101;52.204;9.910;2023-03-14T10:04:45;1.33;;;0.40;;
19877;SDS011;10101;52.204;9.910;2023-03-14T10:07:14;0.30;;;0.30;;
19877;SDS011;10101;52.204;9.910;2023-03-14T10:09:44;0.40;;;0.40;;
19877;SDS011;10101;52.204;9.910;2023-03-14T10:12:13;0.60;;;0.40;;
19877;SDS011;10101;52.204;9.910;2023-03-14T10:14:44;0.53;;;0.40;;
19877;SDS011;10101;52.204;9.910;2023-03-14T10:17:14;0.30;;;0.20;;
19877;SDS011;10101;52.204;9.910;2023-03-14T10:19:52;0.80;;;0.33;;
19877;SDS011;10101;52.204;9.910;2023-03-14T10:22:22;1.17;;;0.37;;
19877;SDS011;10101;52.204;9.910;2023-03-14T10:24:51;0.43;;;0.40;;
19877;SDS011;10101;52.204;9.910;2023-03-14T10:27:21;0.50;;;0.30;;
19877;SDS011;10101;52.204;9.910;2023-03-14T10:29:53;0.40;;;0.20;;
19877;SDS011;10101;52.204;9.910;2023-03-14T10:32:22;0.27;;;0.27;;
19877;SDS011;10101;52.204;9.910;2023-03-14T10:35:05;0.30;;;0.30;;
19877;SDS011;10101;52.204;9.910;2023-03-14T10:37:36;0.40;;;0.40;;
19877;SDS011;10101;52.204;9.910;2023-03-14T10:40:16;0.30;;;0.30;;
19877;SDS011;10101;52.204;9.910;2023-03-14T10:42:44;0.50;;;0.40;;
19877;SDS011;10101;52.204;9.910;2023-03-14T10:45:22;0.40;;;0.40;;
19877;SDS011;10101;52.204;9.910;2023-03-14T10:47:57;0.30;;;0.30;;
19877;SDS011;10101;52.204;9.910;2023-03-14T10:50:26;0.57;;;0.40;;
19877;SDS011;10101;52.204;9.910;2023-03-14T10:52:57;0.57;;;0.40;;
19877;SDS011;10101;52.204;9.910;2023-03-14T10:55:39;0.30;;;0.30;;
19877;SDS011;10101;52.204;9.910;2023-03-14T10:58:17;0.40;;;0.40;;
19877;SDS011;10101;52.204;9.910;2023-03-14T11:00:53;0.43;;;0.30;;
19877;SDS011;10101;52.204;9.910;2023-03-14T11:03:26;0.40;;;0.40;;
19877;SDS011;10101;52.204;9.910;2023-03-14T11:05:56;0.30;;;0.30;;
19877;SDS011;10101;52.204;9.910;2023-03-14T11:08:27;0.37;;;0.37;;
19877;SDS011;10101;52.204;9.910;2023-03-14T11:11:05;0.97;;;0.40;;
19877;SDS011;10101;52.204;9.910;2023-03-14T11:13:37;0.57;;;0.50;;
19877;SDS011;10101;52.204;9.910;2023-03-14T11:16:09;0.67;;;0.50;;
19877;SDS011;10101;52.204;9.910;2023-03-14T11:18:55;0.43;;;0.37;;
19877;SDS011;10101;52.204;9.910;2023-03-14T11:21:41;0.50;;;0.30;;
19877;SDS011;10101;52.204;9.910;2023-03-14T11:24:17;0.50;;;0.50;;
19877;SDS011;10101;52.204;9.910;2023-03-14T11:26:55;0.70;;;0.40;;
19877;SDS011;10101;52.204;9.910;2023-03-14T11:29:28;0.57;;;0.40;;
19877;SDS011;10101;52.204;9.910;2023-03-14T11:31:59;0.40;;;0.30;;
19877;SDS011;10101;52.204;9.910;2023-03-14T11:34:29;1.07;;;0.97;;
19877;SDS011;10101;52.204;9.910;2023-03-14T11:37:04;2.37;;;0.70;;
19877;SDS011;10101;52.204;9.910;2023-03-14T11:39:37;0.80;;;0.80;;
19877;SDS011;10101;52.204;9.910;2023-03-14T11:42:07;0.60;;;0.50;;
19877;SDS011;10101;52.204;9.910;2023-03-14T11:44:39;1.00;;;0.70;;
19877;SDS011;10101;52.204;9.910;2023-03-14T11:47:10;2.30;;;0.60;;
19877;SDS011;10101;52.204;9.910;2023-03-14T11:49:42;3.70;;;0.60;;
19877;SDS011;10101;52.204;9.910;2023-03-14T11:52:14;0.90;;;0.47;;
19877;SDS011;10101;52.204;9.910;2023-03-14T11:54:48;0.20;;;0.20;;
19877;SDS011;10101;52.204;9.910;2023-03-14T11:57:20;0.87;;;0.60;;
19877;SDS011;10101;52.204;9.910;2023-03-14T11:59:50;1.07;;;0.40;;
19877;SDS011;10101;52.204;9.910;2023-03-14T12:02:22;2.10;;;1.90;;
19877;SDS011;10101;52.204;9.910;2023-03-14T12:04:57;1.73;;;1.63;;
19877;SDS011;10101;52.204;9.910;2023-03-14T12:07:51;1.40;;;0.87;;
19877;SDS011;10101;52.204;9.910;2023-03-14T12:10:46;0.60;;;0.60;;
19877;SDS011;10101;52.204;9.910;2023-03-14T12:13:17;0.80;;;0.63;;
19877;SDS011;10101;52.204;9.910;2023-03-14T12:15:46;0.77;;;0.63;;
19877;SDS011;10101;52.204;9.910;2023-03-14T12:18:18;0.77;;;0.77;;
19877;SDS011;10101;52.204;9.910;2023-03-14T12:20:50;0.90;;;0.90;;
19877;SDS011;10101;52.204;9.910;2023-03-14T12:23:19;1.20;;;1.10;;
19877;SDS011;10101;52.204;9.910;2023-03-14T12:25:47;2.57;;;1.23;;
19877;SDS011;10101;52.204;9.910;2023-03-14T12:28:32;0.80;;;0.80;;
19877;SDS011;10101;52.204;9.910;2023-03-14T12:31:08;0.80;;;0.80;;
19877;SDS011;10101;52.204;9.910;2023-03-14T12:34:04;0.50;;;0.50;;
19877;SDS011;10101;52.204;9.910;2023-03-14T12:37:10;0.97;;;0.57;;
19877;SDS011;10101;52.204;9.910;2023-03-14T12:39:45;1.10;;;0.50;;
19877;SDS011;10101;52.204;9.910;2023-03-14T12:42:20;0.60;;;0.50;;
19877;SDS011;10101;52.204;9.910;2023-03-14T12:45:13;0.50;;;0.50;;
19877;SDS011;10101;52.204;9.910;2023-03-14T12:47:57;0.50;;;0.50;;
19877;SDS011;10101;52.204;9.910;2023-03-14T12:50:43;0.37;;;0.37;;
19877;SDS011;10101;52.204;9.910;2023-03-14T12:56:09;0.90;;;0.73;;
19877;SDS011;10101;52.204;9.910;2023-03-14T12:58:47;0.40;;;0.40;;
19877;SDS011;10101;52.204;9.910;2023-03-14T13:01:25;0.50;;;0.50;;
19877;SDS011;10101;52.204;9.910;2023-03-14T13:03:54;0.93;;;0.83;;
19877;SDS011;10101;52.204;9.910;2023-03-14T13:12:19;0.63;;;0.63;;
19877;SDS011;10101;52.204;9.910;2023-03-14T13:14:52;0.93;;;0.70;;
19877;SDS011;10101;52.204;9.910;2023-03-14T13:17:22;0.87;;;0.80;;
19877;SDS011;10101;52.204;9.910;2023-03-14T13:19:55;1.67;;;0.53;;
19877;SDS011;10101;52.204;9.910;2023-03-14T13:22:24;1.53;;;0.50;;
19877;SDS011;10101;52.204;9.910;2023-03-14T13:25:00;1.67;;;1.13;;
19877;SDS011;10101;52.204;9.910;2023-03-14T13:27:30;0.60;;;0.60;;
19877;SDS011;10101;52.204;9.910;2023-03-14T13:29:59;1.73;;;0.90;;
19877;SDS011;10101;52.204;9.910;2023-03-14T13:32:32;1.63;;;0.87;;
19877;SDS011;10101;52.204;9.910;2023-03-14T13:35:00;2.13;;;0.80;;
19877;SDS011;10101;52.204;9.910;2023-03-14T13:37:27;7.37;;;1.97;;
19877;SDS011;10101;52.204;9.910;2023-03-14T13:39:55;5.90;;;1.90;;
19877;SDS011;10101;52.204;9.910;2023-03-14T13:42:24;2.80;;;1.20;;
19877;SDS011;10101;52.204;9.910;2023-03-14T13:44:53;2.73;;;0.60;;
19877;SDS011;10101;52.204;9.910;2023-03-14T13:47:23;2.37;;;0.67;;
19877;SDS011;10101;52.204;9.910;2023-03-14T13:49:52;3.93;;;0.97;;
19877;SDS011;10101;52.204;9.910;2023-03-14T13:52:30;5.47;;;1.00;;
19877;SDS011;10101;52.204;9.910;2023-03-14T13:55:01;2.93;;;0.83;;
19877;SDS011;10101;52.204;9.910;2023-03-14T13:57:42;2.83;;;1.00;;
19877;SDS011;10101;52.204;9.910;2023-03-14T14:00:16;7.27;;;1.20;;
19877;SDS011;10101;52.204;9.910;2023-03-14T14:02:45;5.73;;;1.10;;
19877;SDS011;10101;52.204;9.910;2023-03-14T14:05:12;2.67;;;0.90;;
19877;SDS011;10101;52.204;9.910;2023-03-14T14:07:41;4.50;;;1.23;;
19877;SDS011;10101;52.204;9.910;2023-03-14T14:10:10;2.90;;;0.90;;
19877;SDS011;10101;52.204;9.910;2023-03-14T14:12:39;1.33;;;0.80;;
19877;SDS011;10101;52.204;9.910;2023-03-14T14:15:10;3.27;;;0.60;;
19877;SDS011;10101;52.204;9.910;2023-03-14T14:17:40;2.60;;;0.73;;
19877;SDS011;10101;52.204;9.910;2023-03-14T14:20:12;1.83;;;0.70;;
19877;SDS011;10101;52.204;9.910;2023-03-14T14:22:47;1.20;;;0.90;;
19877;SDS011;10101;52.204;9.910;2023-03-14T14:25:15;7.87;;;1.10;;
19877;SDS011;10101;52.204;9.910;2023-03-14T14:27:43;1.73;;;1.07;;
19877;SDS011;10101;52.204;9.910;2023-03-14T14:30:25;3.63;;;1.10;;
19877;SDS011;10101;52.204;9.910;2023-03-14T14:33:09;4.73;;;1.13;;
19877;SDS011;10101;52.204;9.910;2023-03-14T14:35:38;4.97;;;1.17;;
19877;SDS011;10101;52.204;9.910;2023-03-14T14:38:10;8.33;;;1.33;;
19877;SDS011;10101;52.204;9.910;2023-03-14T14:40:45;3.07;;;1.37;;
19877;SDS011;10101;52.204;9.910;2023-03-14T14:43:14;10.13;;;1.67;;
19877;SDS011;10101;52.204;9.910;2023-03-14T14:45:44;5.53;;;1.50;;
19877;SDS011;10101;52.204;9.910;2023-03-14T14:48:13;10.90;;;1.40;;
19877;SDS011;10101;52.204;9.910;2023-03-14T14:50:48;4.37;;;0.87;;
19877;SDS011;10101;52.204;9.910;2023-03-14T14:53:23;6.83;;;1.27;;
19877;SDS011;10101;52.204;9.910;2023-03-14T14:55:53;2.10;;;0.90;;
19877;SDS011;10101;52.204;9.910;2023-03-14T14:58:23;11.57;;;1.03;;
19877;SDS011;10101;52.204;9.910;2023-03-14T15:00:53;12.03;;;2.40;;
19877;SDS011;10101;52.204;9.910;2023-03-14T15:03:23;10.20;;;1.83;;
19877;SDS011;10101;52.204;9.910;2023-03-14T15:05:53;3.50;;;0.70;;
19877;SDS011;10101;52.204;9.910;2023-03-14T15:08:23;7.60;;;1.53;;
19877;SDS011;10101;52.204;9.910;2023-03-14T15:10:51;7.30;;;1.77;;
19877;SDS011;10101;52.204;9.910;2023-03-14T15:13:17;8.97;;;1.60;;